Time;durP1;ratioP1;P1;durP2;ratioP2;P2;SDS_P1;SDS_P2;PMS_P1;PMS_P2;Temp;Humidity;BMP_temperature;BMP_pressure;BME280_temperature;BME280_humidity;BME280_pressure;Samples;Min_cycle;Max_cycle;Signal;HPM_P1;HPM_P2
2021/07/28 00:01:30;;;;;;;21.15;10.20;;;;;;;14.30;100.00;100996.50;5212209;28;20021;-65
2021/07/28 00:04:00;;;;;;;24.80;11.57;;;;;;;14.32;100.00;100999.88;5222037;28;20051;-65
2021/07/28 00:06:31;;;;;;;24.83;10.98;;;;;;;14.28;100.00;100990.47;5210322;28;20110;-64
2021/07/28 00:09:01;;;;;;;19.02;10.25;;;;;;;14.22;100.00;100992.06;5197905;28;20392;-65
2021/07/28 00:11:32;;;;;;;23.13;10.93;;;;;;;14.16;100.00;100990.97;5215031;28;20079;-65
2021/07/28 00:14:02;;;;;;;24.05;9.73;;;;;;;14.12;100.00;100984.25;5192697;28;20032;-65
2021/07/28 00:16:33;;;;;;;23.58;11.13;;;;;;;14.12;100.00;100984.25;5210182;28;20510;-65
2021/07/28 00:24:28;;;;;;;24.00;12.20;;;;;;;14.19;100.00;100978.94;5213274;28;20409;-65
2021/07/28 00:26:59;;;;;;;26.13;12.38;;;;;;;14.20;100.00;100976.03;5209367;28;20033;-65
2021/07/28 00:29:31;;;;;;;27.88;12.10;;;;;;;14.16;100.00;100977.47;5210557;28;20025;-65
2021/07/28 00:32:01;;;;;;;29.27;12.38;;;;;;;14.15;100.00;100975.78;5216086;28;20045;-65
2021/07/28 00:34:32;;;;;;;25.10;12.00;;;;;;;14.12;100.00;100968.06;5215549;28;20021;-65
2021/07/28 00:37:02;;;;;;;23.30;11.57;;;;;;;14.07;100.00;100973.19;5209959;28;20139;-65
2021/07/28 00:39:33;;;;;;;26.85;12.23;;;;;;;14.05;100.00;100968.97;5208247;28;20034;-65
2021/07/28 00:42:03;;;;;;;27.98;12.07;;;;;;;14.05;100.00;100966.28;5214057;28;20033;-65
2021/07/28 00:44:34;;;;;;;25.88;11.25;;;;;;;14.04;100.00;100956.53;5215360;28;20029;-65
2021/07/28 00:47:04;;;;;;;22.42;12.02;;;;;;;14.03;100.00;100958.38;5212437;28;20021;-65
2021/07/28 00:49:35;;;;;;;27.42;12.73;;;;;;;14.02;100.00;100962.13;5209023;28;20024;-65
2021/07/28 00:52:06;;;;;;;26.65;12.43;;;;;;;13.96;100.00;100949.38;5211149;28;20049;-65
2021/07/28 00:54:39;;;;;;;25.83;12.88;;;;;;;14.03;100.00;100955.69;5215591;28;20032;-65
2021/07/28 00:57:10;;;;;;;26.92;12.25;;;;;;;14.03;100.00;100955.69;5203296;28;20029;-65
2021/07/28 00:59:40;;;;;;;23.65;12.43;;;;;;;13.98;100.00;100958.94;5196968;28;20036;-65
2021/07/28 01:02:11;;;;;;;28.13;12.55;;;;;;;14.04;100.00;100954.66;5215087;28;20458;-64
2021/07/28 01:04:41;;;;;;;29.48;12.43;;;;;;;14.17;100.00;100957.56;5214513;28;20039;-65
2021/07/28 01:07:12;;;;;;;27.02;12.80;;;;;;;14.30;100.00;100953.34;5204548;28;20056;-65
2021/07/28 01:09:42;;;;;;;24.77;13.07;;;;;;;14.40;100.00;100956.59;5211373;28;20033;-65
2021/07/28 01:12:13;;;;;;;27.23;12.52;;;;;;;14.50;100.00;100952.59;5215179;28;20387;-65
2021/07/28 01:14:44;;;;;;;26.88;12.77;;;;;;;14.59;100.00;100944.38;5212820;28;20556;-64
2021/07/28 01:17:20;;;;;;;25.25;11.80;;;;;;;14.59;100.00;100945.22;5208858;28;20023;-65
2021/07/28 01:20:11;;;;;;;25.33;11.40;;;;;;;14.54;100.00;100947.66;5193283;28;20099;-65
2021/07/28 01:22:42;;;;;;;32.47;12.93;;;;;;;14.50;100.00;100941.78;5212123;28;20781;-65
2021/07/28 01:25:13;;;;;;;25.33;12.40;;;;;;;14.50;100.00;100936.41;5214281;28;20117;-65
2021/07/28 01:27:43;;;;;;;26.20;12.15;;;;;;;14.52;100.00;100941.63;5212692;28;20526;-65
2021/07/28 01:30:17;;;;;;;31.33;12.90;;;;;;;14.55;100.00;100937.69;5203341;28;20442;-65
2021/07/28 01:32:48;;;;;;;25.58;12.05;;;;;;;14.58;100.00;100940.84;5213631;28;20119;-65
2021/07/28 01:35:21;;;;;;;28.50;12.52;;;;;;;14.67;100.00;100938.88;5208117;28;20199;-65
2021/07/28 01:37:52;;;;;;;24.27;12.93;;;;;;;14.70;100.00;100933.91;5207958;28;20545;-65
2021/07/28 01:40:23;;;;;;;25.73;13.18;;;;;;;14.69;100.00;100937.66;5213224;28;20432;-65
2021/07/28 01:42:54;;;;;;;26.98;12.13;;;;;;;14.70;100.00;100930.38;5214412;28;20123;-65
2021/07/28 01:45:35;;;;;;;24.85;12.15;;;;;;;14.71;100.00;100924.81;5212071;28;20025;-64
2021/07/28 01:48:08;;;;;;;20.20;11.27;;;;;;;14.69;100.00;100917.91;5208007;28;20025;-65
2021/07/28 01:50:40;;;;;;;28.48;12.98;;;;;;;14.70;100.00;100922.28;5208781;28;20028;-65
2021/07/28 01:53:12;;;;;;;27.25;12.60;;;;;;;14.69;100.00;100909.81;5207694;28;20036;-65
2021/07/28 01:55:54;;;;;;;27.10;13.15;;;;;;;14.68;100.00;100922.47;5208068;28;20025;-65
2021/07/28 01:58:24;;;;;;;26.17;12.63;;;;;;;14.67;100.00;100918.13;5210622;28;20390;-65
2021/07/28 02:00:56;;;;;;;25.70;12.07;;;;;;;14.68;100.00;100913.56;5207490;28;20078;-65
2021/07/28 02:03:26;;;;;;;25.90;11.52;;;;;;;14.65;100.00;100908.53;5221722;28;20116;-65
2021/07/28 02:05:57;;;;;;;26.10;12.90;;;;;;;14.60;100.00;100910.97;5203217;28;20101;-65
2021/07/28 02:08:28;;;;;;;28.40;12.65;;;;;;;14.60;100.00;100903.69;5214286;28;20044;-65
2021/07/28 02:10:59;;;;;;;25.33;12.48;;;;;;;14.58;100.00;100913.84;5213761;28;20017;-65
2021/07/28 02:13:29;;;;;;;25.58;12.63;;;;;;;14.59;100.00;100909.28;5218144;28;20049;-65
2021/07/28 02:16:00;;;;;;;35.33;13.60;;;;;;;14.63;100.00;100911.41;5213831;28;20056;-65
2021/07/28 02:18:31;;;;;;;29.23;13.80;;;;;;;14.67;100.00;100918.13;5212068;28;20566;-64
2021/07/28 02:21:02;;;;;;;29.83;13.30;;;;;;;14.71;100.00;100916.72;5214800;28;20079;-65
2021/07/28 02:23:32;;;;;;;28.55;13.43;;;;;;;14.76;100.00;100916.97;5217562;28;20036;-64
2021/07/28 02:26:03;;;;;;;22.65;12.95;;;;;;;14.80;100.00;100920.09;5216295;28;20029;-65
2021/07/28 02:28:33;;;;;;;28.92;13.02;;;;;;;14.82;100.00;100914.53;5212374;28;20070;-65
2021/07/28 02:31:04;;;;;;;27.73;13.15;;;;;;;14.85;100.00;100920.38;5212402;28;20029;-65
2021/07/28 02:33:34;;;;;;;32.47;13.57;;;;;;;14.85;100.00;100916.84;5217834;28;20052;-65
2021/07/28 02:36:05;;;;;;;26.83;13.80;;;;;;;14.86;100.00;100913.09;5217635;28;20052;-65
2021/07/28 02:38:36;;;;;;;28.98;13.80;;;;;;;14.86;100.00;100918.50;5212746;28;20518;-65
2021/07/28 02:41:06;;;;;;;27.27;13.70;;;;;;;14.88;100.00;100920.00;5210823;28;20033;-65
2021/07/28 02:43:37;;;;;;;29.75;13.80;;;;;;;14.90;100.00;100911.69;5216504;28;20424;-65
2021/07/28 02:46:08;;;;;;;30.02;14.00;;;;;;;14.92;100.00;100910.47;5217813;28;20051;-65
2021/07/28 02:48:38;;;;;;;27.05;13.48;;;;;;;14.94;100.00;100910.28;5213643;28;20100;-65
2021/07/28 02:51:09;;;;;;;28.75;13.73;;;;;;;14.94;100.00;100908.41;5210966;28;20071;-65
2021/07/28 02:53:40;;;;;;;28.00;13.10;;;;;;;14.94;100.00;100913.81;5214180;28;20083;-65
2021/07/28 02:56:10;;;;;;;26.40;12.93;;;;;;;14.94;100.00;100911.09;5217552;28;20458;-65
2021/07/28 02:58:40;;;;;;;30.83;13.73;;;;;;;14.97;100.00;100915.31;5216195;28;20035;-64
2021/07/28 03:01:11;;;;;;;21.85;12.40;;;;;;;15.01;100.00;100913.91;5204113;28;20509;-65
2021/07/28 03:03:41;;;;;;;27.23;13.07;;;;;;;15.03;100.00;100912.66;5217194;28;20028;-65
2021/07/28 03:06:12;;;;;;;29.83;13.45;;;;;;;15.08;100.00;100920.19;5214024;28;20018;-65
2021/07/28 03:08:42;;;;;;;29.15;13.07;;;;;;;15.10;100.00;100912.72;5217407;28;20067;-65
2021/07/28 03:11:13;;;;;;;35.17;13.82;;;;;;;15.17;100.00;100915.50;5194611;28;20495;-65
2021/07/28 03:13:43;;;;;;;25.90;13.73;;;;;;;15.20;100.00;100915.06;5210607;28;20596;-65
2021/07/28 03:16:14;;;;;;;33.55;13.95;;;;;;;15.25;100.00;100923.44;5213993;28;20045;-65
2021/07/28 03:18:44;;;;;;;33.47;15.43;;;;;;;15.27;100.00;100922.22;5216580;28;20021;-65
2021/07/28 03:21:15;;;;;;;34.67;14.55;;;;;;;15.31;100.00;100924.53;5214993;28;20029;-65
2021/07/28 03:23:45;;;;;;;36.30;13.75;;;;;;;15.35;100.00;100926.63;5210649;28;20023;-65
2021/07/28 03:26:16;;;;;;;35.85;13.90;;;;;;;15.37;100.00;100927.31;5210957;28;20033;-64
2021/07/28 03:28:47;;;;;;;30.88;13.73;;;;;;;15.41;100.00;100928.59;5217031;28;20459;-65
2021/07/28 03:31:18;;;;;;;29.73;13.70;;;;;;;15.43;100.00;100917.56;5216171;28;20025;-65
2021/07/28 03:33:48;;;;;;;31.25;14.55;;;;;;;15.47;100.00;100930.50;5211102;28;20021;-65
2021/07/28 03:36:18;;;;;;;27.77;14.05;;;;;;;15.48;100.00;100923.22;5210698;28;20026;-65
2021/07/28 03:38:49;;;;;;;30.70;14.60;;;;;;;15.50;100.00;100921.97;5214625;28;20026;-65
2021/07/28 03:41:19;;;;;;;28.92;13.63;;;;;;;15.51;100.00;100917.41;5218822;28;20052;-66
2021/07/28 03:43:50;;;;;;;25.95;14.18;;;;;;;15.52;100.00;100921.81;5213546;28;20025;-65
2021/07/28 03:46:20;;;;;;;27.63;13.48;;;;;;;15.51;100.00;100920.09;5216743;28;20040;-65
2021/07/28 03:48:52;;;;;;;31.05;13.38;;;;;;;15.57;100.00;100923.91;5214686;28;20025;-65
2021/07/28 03:51:22;;;;;;;25.50;13.45;;;;;;;15.53;100.00;100927.00;5209467;28;20503;-65
2021/07/28 03:53:53;;;;;;;27.58;12.90;;;;;;;15.56;100.00;100931.16;5210902;28;20052;-65
2021/07/28 03:56:23;;;;;;;23.83;13.05;;;;;;;15.57;100.00;100929.31;5216455;28;20056;-65
2021/07/28 03:58:56;;;;;;;25.50;14.65;;;;;;;15.57;100.00;100927.44;5216448;28;20029;-65
2021/07/28 04:01:26;;;;;;;26.67;12.38;;;;;;;15.59;100.00;100935.34;5209882;28;20143;-65
2021/07/28 04:03:57;;;;;;;23.50;13.13;;;;;;;15.60;100.00;100928.91;5221494;28;20539;-65
2021/07/28 04:06:27;;;;;;;25.67;12.82;;;;;;;15.58;100.00;100928.28;5185299;28;20181;-65
2021/07/28 04:08:58;;;;;;;27.30;12.73;;;;;;;15.59;100.00;100928.06;5215597;28;20068;-65
2021/07/28 04:11:28;;;;;;;25.30;13.65;;;;;;;15.62;100.00;100922.28;5213805;28;20394;-65
2021/07/28 04:13:59;;;;;;;22.38;12.90;;;;;;;15.61;100.00;100926.00;5209143;28;20025;-65
2021/07/28 04:16:29;;;;;;;28.55;13.77;;;;;;;15.60;100.00;100924.34;5210449;28;20028;-65
2021/07/28 04:19:00;;;;;;;27.90;13.52;;;;;;;15.65;100.00;100919.19;5215788;28;20063;-66
2021/07/28 04:21:30;;;;;;;26.35;13.90;;;;;;;15.62;100.00;100925.00;5215488;28;20074;-65
2021/07/28 04:24:01;;;;;;;29.98;13.30;;;;;;;15.63;100.00;100925.81;5210561;28;20100;-65
2021/07/28 04:26:31;;;;;;;29.10;14.13;;;;;;;15.70;100.00;100927.56;5209214;28;20387;-65
2021/07/28 04:29:02;;;;;;;28.17;13.43;;;;;;;15.67;100.00;100927.97;5213237;28;20025;-65
2021/07/28 04:31:32;;;;;;;29.45;15.15;;;;;;;15.66;100.00;100931.72;5214932;28;20216;-65
2021/07/28 04:34:03;;;;;;;24.23;14.25;;;;;;;15.66;100.00;100937.13;5213105;28;20025;-65
2021/07/28 04:36:33;;;;;;;26.20;14.32;;;;;;;15.72;100.00;100938.19;5209420;28;20021;-65
2021/07/28 04:39:04;;;;;;;26.90;14.07;;;;;;;15.73;100.00;100938.00;5209940;28;20036;-65
2021/07/28 04:41:34;;;;;;;25.08;12.52;;;;;;;15.75;100.00;100941.31;5215569;28;20481;-65
2021/07/28 04:44:05;;;;;;;24.88;11.82;;;;;;;15.83;100.00;100937.63;5215119;28;20457;-65
2021/07/28 04:46:36;;;;;;;22.55;12.15;;;;;;;15.82;100.00;100943.25;5208969;28;20036;-65
2021/07/28 04:49:06;;;;;;;20.10;10.18;;;;;;;15.84;100.00;100939.31;5208626;28;20056;-65
2021/07/28 04:51:37;;;;;;;22.73;10.40;;;;;;;15.82;100.00;100945.97;5214613;28;20491;-65
2021/07/28 04:54:07;;;;;;;13.13;8.40;;;;;;;15.83;100.00;100951.16;5215260;28;20017;-65
2021/07/28 04:56:37;;;;;;;14.90;8.48;;;;;;;15.81;100.00;100947.81;5204798;28;20446;-65
2021/07/28 04:59:08;;;;;;;18.92;9.10;;;;;;;15.76;100.00;100948.44;5214514;28;20025;-66
2021/07/28 05:01:38;;;;;;;15.05;7.50;;;;;;;15.71;100.00;100947.31;5211816;28;20083;-65
2021/07/28 05:04:09;;;;;;;14.20;7.95;;;;;;;15.70;100.00;100948.38;5220941;28;20033;-65
2021/07/28 05:06:41;;;;;;;19.05;8.40;;;;;;;15.62;100.00;100953.91;5207593;28;20031;-65
2021/07/28 05:09:12;;;;;;;12.85;6.82;;;;;;;15.60;100.00;100953.25;5214343;28;20040;-65
2021/07/28 05:11:43;;;;;;;21.92;6.60;;;;;;;15.69;100.00;100949.41;5215030;28;20033;-65
2021/07/28 05:14:13;;;;;;;12.75;6.15;;;;;;;15.77;100.00;100960.91;5208787;28;20348;-65
2021/07/28 05:16:44;;;;;;;15.77;6.45;;;;;;;15.91;100.00;100955.56;5208281;28;20040;-65
2021/07/28 05:19:14;;;;;;;11.02;5.90;;;;;;;15.99;100.00;100952.72;5196013;28;20034;-65
2021/07/28 05:21:45;;;;;;;10.18;5.93;;;;;;;15.98;100.00;100964.59;5214877;28;20547;-66
2021/07/28 05:24:15;;;;;;;10.27;5.28;;;;;;;16.01;100.00;100969.56;5210516;28;20078;-65
2021/07/28 05:26:46;;;;;;;14.50;5.28;;;;;;;16.02;100.00;100955.88;5208303;28;20487;-65
2021/07/28 05:29:16;;;;;;;11.70;5.20;;;;;;;16.04;100.00;100955.66;5210670;28;20036;-65
2021/07/28 05:31:47;;;;;;;20.05;5.75;;;;;;;16.09;100.00;100957.78;5214530;28;20151;-65
2021/07/28 05:34:17;;;;;;;15.35;5.90;;;;;;;16.83;100.00;100947.91;5212991;28;20052;-65
2021/07/28 05:36:48;;;;;;;10.02;4.68;;;;;;;17.73;100.00;100948.41;5208890;28;20028;-65
2021/07/28 05:39:18;;;;;;;15.10;6.05;;;;;;;17.98;100.00;100948.56;5208425;28;20026;-66
2021/07/28 05:41:49;;;;;;;12.20;4.93;;;;;;;18.33;100.00;100946.38;5213909;28;20101;-66
2021/07/28 05:44:19;;;;;;;12.90;4.50;;;;;;;18.26;100.00;100959.13;5201202;28;20431;-66
2021/07/28 05:46:50;;;;;;;9.90;4.95;;;;;;;18.11;100.00;100967.50;5196425;28;20397;-66
2021/07/28 05:49:20;;;;;;;11.20;4.10;;;;;;;17.91;100.00;100957.75;5214254;28;20025;-65
2021/07/28 05:51:51;;;;;;;16.27;5.07;;;;;;;17.44;100.00;100956.94;5210041;28;20021;-65
2021/07/28 05:54:21;;;;;;;8.25;4.68;;;;;;;17.04;100.00;100956.91;5208366;28;20056;-65
2021/07/28 05:56:52;;;;;;;12.95;4.78;;;;;;;17.21;100.00;100949.19;5211385;28;20030;-65
2021/07/28 05:59:23;;;;;;;10.65;4.70;;;;;;;18.05;100.00;100951.25;5213461;28;20041;-66
2021/07/28 06:01:53;;;;;;;8.75;4.47;;;;;;;19.05;100.00;100951.66;5212814;28;20029;-65
2021/07/28 06:04:24;;;;;;;6.95;3.65;;;;;;;20.08;100.00;100959.34;5215499;28;20395;-66
2021/07/28 06:06:54;;;;;;;9.90;3.70;;;;;;;20.68;100.00;100965.78;5201287;28;20104;-65
2021/07/28 06:09:25;;;;;;;8.25;3.75;;;;;;;20.83;100.00;100959.91;5213129;28;20029;-65
2021/07/28 06:11:55;;;;;;;9.50;3.90;;;;;;;20.83;100.00;100967.25;5214000;28;20037;-65
2021/07/28 06:14:26;;;;;;;8.27;3.63;;;;;;;21.35;100.00;100970.31;5209870;28;20021;-65
2021/07/28 06:16:56;;;;;;;6.80;3.38;;;;;;;21.97;100.00;100963.31;5207829;28;20052;-66
2021/07/28 06:19:27;;;;;;;9.50;3.35;;;;;;;21.35;100.00;100957.50;5193341;28;20022;-66
2021/07/28 06:21:57;;;;;;;8.65;3.70;;;;;;;20.86;100.00;100961.34;5213847;28;20403;-66
2021/07/28 06:24:28;;;;;;;8.40;3.90;;;;;;;20.33;100.00;100972.88;5212001;28;20398;-66
2021/07/28 06:26:58;;;;;;;6.55;3.45;;;;;;;20.97;100.00;100957.00;5208032;28;20389;-65
2021/07/28 06:29:28;;;;;;;9.35;3.95;;;;;;;20.89;100.00;100972.63;5207670;28;20488;-66
2021/07/28 06:31:59;;;;;;;10.45;3.92;;;;;;;20.95;100.00;100959.97;5214161;28;20029;-66
2021/07/28 06:34:29;;;;;;;10.00;3.88;;;;;;;21.04;100.00;100969.50;5214197;28;20104;-66
2021/07/28 06:37:00;;;;;;;11.63;4.30;;;;;;;20.79;100.00;100975.09;5208369;28;20028;-65
2021/07/28 06:39:30;;;;;;;13.15;4.75;;;;;;;20.09;100.00;100963.75;5207033;28;20428;-65
2021/07/28 06:42:01;;;;;;;10.90;4.43;;;;;;;19.49;100.00;100967.00;5212079;28;20075;-65
2021/07/28 06:44:31;;;;;;;10.75;5.10;;;;;;;19.37;100.00;100972.31;5213844;28;20033;-66
2021/07/28 06:47:02;;;;;;;11.48;5.03;;;;;;;19.28;100.00;100975.56;5210575;28;20057;-65
2021/07/28 06:49:33;;;;;;;11.32;4.70;;;;;;;19.26;100.00;100964.88;5207447;28;20021;-66
2021/07/28 06:52:03;;;;;;;16.40;5.10;;;;;;;19.08;100.00;100972.97;5210599;28;20076;-66
2021/07/28 06:54:34;;;;;;;10.27;4.93;;;;;;;18.67;100.00;100973.38;5215008;28;20072;-65
2021/07/28 06:57:04;;;;;;;13.00;5.13;;;;;;;18.51;100.00;100971.97;5206340;28;20096;-65
2021/07/28 06:59:35;;;;;;;9.80;4.82;;;;;;;18.10;100.00;100973.16;5216870;28;20380;-65
2021/07/28 07:02:05;;;;;;;12.85;5.03;;;;;;;18.15;100.00;100965.22;5217444;28;20079;-65
2021/07/28 07:04:36;;;;;;;10.35;4.38;;;;;;;18.01;100.00;100967.13;5217255;28;20037;-65
2021/07/28 07:07:06;;;;;;;12.20;4.68;;;;;;;18.11;100.00;100969.41;5205331;28;20115;-65
2021/07/28 07:09:37;;;;;;;9.68;4.50;;;;;;;18.09;100.00;100972.34;5214917;28;20025;-65
2021/07/28 07:12:07;;;;;;;10.45;4.47;;;;;;;18.08;100.00;100972.56;5217144;28;20112;-65
2021/07/28 07:14:38;;;;;;;9.35;4.38;;;;;;;18.05;100.00;100962.09;5214569;28;20021;-65
2021/07/28 07:17:08;;;;;;;9.52;4.43;;;;;;;18.12;100.00;100960.19;5211050;28;20055;-65
2021/07/28 07:19:39;;;;;;;10.25;4.07;;;;;;;18.25;100.00;100956.63;5211663;28;20025;-65
2021/07/28 07:22:09;;;;;;;15.45;4.95;;;;;;;18.44;100.00;100963.88;5217057;28;20029;-64
2021/07/28 07:24:41;;;;;;;8.60;4.15;;;;;;;18.84;100.00;100952.84;5217077;28;20031;-65
2021/07/28 07:27:12;;;;;;;11.50;3.78;;;;;;;19.06;100.00;100953.31;5210632;28;20047;-64
2021/07/28 07:29:43;;;;;;;12.43;3.97;;;;;;;19.05;100.00;100954.38;5209996;28;20029;-65
2021/07/28 07:32:19;;;;;;;13.48;4.07;;;;;;;19.12;100.00;100961.41;5215629;28;20296;-65
2021/07/28 07:34:50;;;;;;;7.30;3.22;;;;;;;19.35;100.00;100958.13;5216595;28;20021;-65
2021/07/28 07:37:21;;;;;;;9.98;3.63;;;;;;;19.54;100.00;100960.91;5214017;28;20039;-65
2021/07/28 07:39:51;;;;;;;8.98;3.70;;;;;;;19.82;100.00;100969.44;5210066;28;20033;-64
2021/07/28 07:42:21;;;;;;;6.47;3.80;;;;;;;20.19;100.00;100964.06;5211415;28;20021;-64
2021/07/28 07:44:56;;;;;;;7.25;3.17;;;;;;;20.46;100.00;100970.03;5216441;28;20037;-65
2021/07/28 07:47:26;;;;;;;10.00;3.45;;;;;;;20.25;100.00;100971.31;5216544;28;20029;-65
2021/07/28 07:49:57;;;;;;;9.52;3.20;;;;;;;20.12;100.00;100964.13;5210563;28;20107;-65
2021/07/28 07:52:27;;;;;;;9.82;3.10;;;;;;;20.55;100.00;100960.50;5210488;28;20028;-65
2021/07/28 07:54:57;;;;;;;8.32;3.30;;;;;;;20.32;100.00;100965.78;5214424;28;20061;-65
2021/07/28 07:57:28;;;;;;;6.65;3.10;;;;;;;19.89;100.00;100972.97;5208804;28;20032;-65
2021/07/28 07:59:58;;;;;;;10.25;2.90;;;;;;;19.98;100.00;100972.66;5213181;28;20021;-65
2021/07/28 08:02:31;;;;;;;8.18;2.60;;;;;;;19.86;100.00;100969.84;5219415;28;20566;-65
2021/07/28 08:05:01;;;;;;;9.65;2.72;;;;;;;20.07;100.00;100974.84;5221919;28;20033;-65
2021/07/28 08:07:31;;;;;;;8.50;2.50;;;;;;;20.41;100.00;100976.16;5208289;28;20041;-64
2021/07/28 08:10:02;;;;;;;5.63;2.58;;;;;;;20.65;100.00;100963.53;5210072;28;20109;-65
2021/07/28 08:12:33;;;;;;;7.07;2.78;;;;;;;20.55;100.00;100968.69;5215768;28;20383;-65
2021/07/28 08:15:04;;;;;;;5.47;3.03;;;;;;;20.55;100.00;100965.97;5204310;28;20112;-65
2021/07/28 08:17:34;;;;;;;8.73;3.00;;;;;;;20.44;100.00;100974.88;5214379;28;20491;-65
2021/07/28 08:20:06;;;;;;;9.13;2.67;;;;;;;20.38;100.00;100975.75;5215097;28;20033;-65
2021/07/28 08:22:36;;;;;;;6.22;2.35;;;;;;;20.17;100.00;100974.34;5212148;28;20138;-64
2021/07/28 08:25:07;;;;;;;7.35;2.65;;;;;;;20.05;100.00;100968.81;5209869;28;20029;-64
2021/07/28 08:27:38;;;;;;;3.63;2.15;;;;;;;19.96;100.00;100969.34;5211739;28;20066;-64
2021/07/28 08:30:09;;;;;;;9.77;3.10;;;;;;;19.87;100.00;100974.22;5214823;28;20025;-64
2021/07/28 08:32:41;;;;;;;4.75;2.75;;;;;;;19.92;100.00;100971.66;5214828;28;20025;-64
2021/07/28 08:35:12;;;;;;;5.80;2.53;;;;;;;19.97;100.00;100971.81;5209750;28;20540;-64
2021/07/28 08:37:42;;;;;;;11.98;3.00;;;;;;;20.22;100.00;100965.47;5209633;28;20025;-64
2021/07/28 08:40:15;;;;;;;8.02;3.15;;;;;;;20.02;100.00;100965.69;5196372;28;20503;-64
2021/07/28 08:42:48;;;;;;;3.55;2.22;;;;;;;19.75;100.00;100963.25;5214714;28;20125;-64
2021/07/28 08:45:19;;;;;;;6.85;2.60;;;;;;;19.67;100.00;100967.06;5213130;28;20033;-64
2021/07/28 08:47:49;;;;;;;3.47;2.33;;;;;;;19.87;100.00;100966.06;5209143;28;20017;-64
2021/07/28 08:50:20;;;;;;;4.72;2.55;;;;;;;20.16;100.00;100969.94;5222422;28;20100;-64
2021/07/28 08:52:52;;;;;;;5.55;2.80;;;;;;;20.53;100.00;100968.06;5208950;28;20025;-64
2021/07/28 08:55:22;;;;;;;10.13;2.72;;;;;;;20.42;100.00;100972.34;5209281;28;20041;-64
2021/07/28 08:57:53;;;;;;;9.90;3.15;;;;;;;20.79;100.00;100964.19;5212439;28;20025;-64
2021/07/28 09:00:23;;;;;;;9.00;2.65;;;;;;;20.92;100.00;100963.97;5208467;28;20029;-64
2021/07/28 09:02:55;;;;;;;8.80;3.00;;;;;;;20.71;100.00;100966.38;5220388;28;20115;-64
2021/07/28 09:05:37;;;;;;;10.57;2.90;;;;;;;21.12;100.00;100966.41;5217421;28;20021;-64
2021/07/28 09:08:29;;;;;;;10.15;2.90;;;;;;;21.54;100.00;100974.63;5212717;28;20032;-63
2021/07/28 09:11:03;;;;;;;6.22;2.30;;;;;;;21.72;100.00;100971.75;5214218;28;20112;-64
2021/07/28 09:13:36;;;;;;;6.03;2.33;;;;;;;21.96;100.00;100972.59;5215158;28;20295;-64
2021/07/28 09:16:10;;;;;;;4.88;2.25;;;;;;;21.94;100.00;100966.53;5210882;28;20100;-63
2021/07/28 09:18:43;;;;;;;6.53;2.35;;;;;;;21.88;100.00;100981.13;5208326;28;20438;-64
2021/07/28 09:21:19;;;;;;;13.23;2.70;;;;;;;21.68;100.00;100984.22;5209832;28;20025;-64
2021/07/28 09:23:55;;;;;;;5.30;2.25;;;;;;;22.00;100.00;100983.06;5214764;28;20025;-64
2021/07/28 09:26:29;;;;;;;7.28;1.80;;;;;;;22.23;100.00;100978.41;5202247;28;20022;-64
2021/07/28 09:29:03;;;;;;;7.57;2.72;;;;;;;22.02;100.00;100970.81;5212851;28;20099;-64
2021/07/28 09:31:36;;;;;;;7.05;2.47;;;;;;;21.99;100.00;100971.28;5214662;28;20110;-64
2021/07/28 09:34:18;;;;;;;13.60;2.38;;;;;;;21.46;100.00;100983.13;5212454;28;20021;-64
2021/07/28 09:36:51;;;;;;;8.88;2.53;;;;;;;21.29;100.00;100982.97;5207995;28;20550;-64
2021/07/28 09:39:24;;;;;;;8.15;2.78;;;;;;;21.54;100.00;100982.81;5220542;28;20278;-64
2021/07/28 09:41:58;;;;;;;6.82;2.42;;;;;;;21.46;100.00;100986.69;5209694;28;20056;-64
2021/07/28 09:44:31;;;;;;;5.63;2.40;;;;;;;21.27;100.00;100982.34;5208469;28;20033;-64
2021/07/28 09:47:08;;;;;;;7.57;2.60;;;;;;;20.93;100.00;100990.22;5211738;28;20026;-64
2021/07/28 09:49:42;;;;;;;9.93;2.58;;;;;;;20.60;100.00;100997.97;5205419;28;20032;-64
2021/07/28 09:52:20;;;;;;;4.28;2.42;;;;;;;20.53;100.00;100989.03;5209208;28;20036;-64
2021/07/28 09:54:53;;;;;;;11.43;2.95;;;;;;;20.79;100.00;100996.06;5209348;28;20033;-63
2021/07/28 09:57:25;;;;;;;9.27;2.65;;;;;;;20.90;100.00;100981.66;5208470;28;20021;-64
2021/07/28 10:00:04;;;;;;;8.73;2.40;;;;;;;20.95;100.00;100984.50;5210929;28;20907;-64
2021/07/28 10:02:35;;;;;;;9.27;3.05;;;;;;;21.16;100.00;100975.78;5217869;28;20475;-64
2021/07/28 10:05:07;;;;;;;8.95;1.95;;;;;;;21.16;100.00;100981.25;5219660;28;20032;-64
2021/07/28 10:07:39;;;;;;;12.40;2.55;;;;;;;21.50;100.00;100984.34;5207466;28;20021;-64
2021/07/28 10:10:12;;;;;;;7.50;2.15;;;;;;;21.53;100.00;100977.56;5206848;28;20033;-64
2021/07/28 10:12:44;;;;;;;8.52;2.20;;;;;;;21.58;100.00;100981.22;5213591;28;20026;-64
2021/07/28 10:15:14;;;;;;;4.40;2.42;;;;;;;21.52;100.00;100982.19;5214561;28;20017;-64
2021/07/28 10:17:46;;;;;;;5.18;2.35;;;;;;;21.38;100.00;100978.84;5210375;28;20402;-64
2021/07/28 10:20:16;;;;;;;6.45;2.33;;;;;;;21.25;100.00;100986.38;5207714;28;20025;-64
2021/07/28 10:22:47;;;;;;;9.90;2.38;;;;;;;21.01;100.00;100983.56;5210136;28;20368;-64
2021/07/28 10:25:20;;;;;;;11.63;2.65;;;;;;;21.30;100.00;100979.19;5213934;28;20028;-64
2021/07/28 10:27:52;;;;;;;7.40;2.40;;;;;;;21.61;100.00;100978.03;5213527;28;20032;-64
2021/07/28 10:30:23;;;;;;;10.63;2.47;;;;;;;21.93;100.00;100973.06;5210038;28;20031;-64
2021/07/28 10:32:53;;;;;;;6.70;2.30;;;;;;;22.16;100.00;100976.88;5211886;28;20491;-64
2021/07/28 10:35:29;;;;;;;6.90;2.50;;;;;;;22.29;100.00;100971.16;5217063;28;20068;-64
2021/07/28 10:38:02;;;;;;;12.63;2.40;;;;;;;22.42;100.00;100970.06;5217764;28;20021;-64
2021/07/28 10:40:33;;;;;;;7.13;1.83;;;;;;;22.33;100.00;100976.97;5214105;28;20356;-64
2021/07/28 10:43:04;;;;;;;7.22;2.80;;;;;;;22.03;100.00;100974.38;5207508;28;20034;-64
2021/07/28 10:45:55;;;;;;;4.28;2.50;;;;;;;21.89;100.00;100977.34;5215501;28;20029;-64
2021/07/28 10:48:43;;;;;;;7.47;2.60;;;;;;;21.82;100.00;100979.34;5212392;28;20029;-64
2021/07/28 10:51:50;;;;;;;8.57;2.60;;;;;;;21.89;100.00;100979.25;5210652;28;20485;-64
2021/07/28 10:54:47;;;;;;;10.90;2.60;;;;;;;22.11;100.00;100968.56;5211096;28;20056;-64
2021/07/28 10:57:34;;;;;;;7.13;2.17;;;;;;;22.18;100.00;100972.00;5213764;28;20052;-64
2021/07/28 11:00:08;;;;;;;4.25;2.28;;;;;;;22.01;100.00;100977.34;5213300;28;20156;-64
2021/07/28 11:02:51;;;;;;;8.48;2.58;;;;;;;21.86;100.00;100979.72;5221253;28;20021;-64
2021/07/28 11:05:29;;;;;;;6.07;2.33;;;;;;;21.90;100.00;100975.44;5220269;28;20083;-64
2021/07/28 11:08:07;;;;;;;6.82;2.47;;;;;;;22.58;100.00;100974.75;5213649;28;20033;-64
2021/07/28 11:10:41;;;;;;;5.85;2.35;;;;;;;23.06;100.00;100970.78;5209910;28;20483;-64
2021/07/28 11:13:13;;;;;;;6.25;2.47;;;;;;;23.20;100.00;100982.25;5211932;28;20017;-64
2021/07/28 11:16:03;;;;;;;5.32;2.00;;;;;;;23.25;100.00;100971.41;5217393;28;20029;-64
2021/07/28 11:18:44;;;;;;;4.93;2.53;;;;;;;23.37;100.00;100985.84;5217138;28;20032;-64
2021/07/28 11:21:21;;;;;;;4.57;1.90;;;;;;;23.05;100.00;100982.81;5214782;28;20129;-64
2021/07/28 11:23:56;;;;;;;7.28;2.05;;;;;;;22.77;100.00;100975.41;5210276;28;20403;-64
2021/07/28 11:26:30;;;;;;;6.40;2.40;;;;;;;22.68;100.00;100976.84;5211085;28;20033;-64
2021/07/28 11:29:05;;;;;;;7.25;2.35;;;;;;;22.46;100.00;100984.91;5214718;28;20112;-65
2021/07/28 11:31:37;;;;;;;8.93;2.33;;;;;;;22.42;100.00;100978.25;5216566;28;20033;-64
2021/07/28 11:34:12;;;;;;;10.38;2.10;;;;;;;22.50;100.00;100983.34;5215010;28;20064;-64
2021/07/28 11:36:46;;;;;;;6.85;2.65;;;;;;;22.54;100.00;100987.28;5210354;28;20024;-64